Time;durP1;ratioP1;P1;durP2;ratioP2;P2;SDS_P1;SDS_P2;PMS_P1;PMS_P2;Temp;Humidity;BMP_temperature;BMP_pressure;BME280_temperature;BME280_humidity;BME280_pressure;Samples;Min_cycle;Max_cycle;Signal;HPM_P1;HPM_P2
2023/04/23 00:00:47;;;;;;;8.65;2.63;;;;;;;14.53;50.91;98839.59;5017032;28;20038;-77
2023/04/23 00:03:13;;;;;;;5.70;2.67;;;;;;;14.49;51.23;98836.44;5000703;28;20095;-77
2023/04/23 00:05:40;;;;;;;7.65;2.70;;;;;;;14.48;50.96;98833.00;4984868;28;20405;-77
2023/04/23 00:08:06;;;;;;;6.75;3.00;;;;;;;14.46;51.00;98834.91;4984997;28;20118;-77
2023/04/23 00:10:32;;;;;;;7.75;2.80;;;;;;;14.43;51.31;98837.00;5000702;28;20488;-77
2023/04/23 00:12:58;;;;;;;6.75;2.42;;;;;;;14.42;51.12;98840.56;5017140;28;20029;-77
2023/04/23 00:15:24;;;;;;;8.23;2.72;;;;;;;14.39;51.12;98835.59;5000554;28;20037;-77
2023/04/23 00:17:49;;;;;;;8.43;2.88;;;;;;;14.36;51.28;98834.09;4984221;28;20025;-77
2023/04/23 00:20:15;;;;;;;8.45;2.72;;;;;;;14.33;51.19;98837.00;5000388;28;20049;-77
2023/04/23 00:22:41;;;;;;;4.95;2.45;;;;;;;14.32;51.03;98842.38;5016630;28;20029;-76
2023/04/23 00:25:08;;;;;;;16.90;3.08;;;;;;;14.30;51.32;98840.72;5000542;28;20060;-77
2023/04/23 00:27:33;;;;;;;5.65;2.80;;;;;;;14.29;51.30;98848.72;5000496;28;20033;-77
2023/04/23 00:29:59;;;;;;;4.72;2.80;;;;;;;14.27;51.19;98850.69;4999852;28;20099;-77
2023/04/23 00:32:24;;;;;;;5.80;2.40;;;;;;;14.21;51.08;98845.97;5000317;28;20029;-77
2023/04/23 00:34:50;;;;;;;9.15;2.67;;;;;;;14.21;51.25;98849.41;5000506;28;20370;-77
2023/04/23 00:37:16;;;;;;;8.00;2.95;;;;;;;14.20;51.28;98846.94;5000186;28;20029;-77
2023/04/23 00:39:41;;;;;;;9.40;2.70;;;;;;;14.19;51.13;98843.50;4998936;28;20037;-77
2023/04/23 00:42:11;;;;;;;4.45;2.30;;;;;;;14.17;51.03;98840.19;5014459;28;20115;-78
2023/04/23 00:44:37;;;;;;;8.43;2.40;;;;;;;14.12;51.04;98839.75;5016758;28;20018;-77
2023/04/23 00:47:03;;;;;;;6.53;2.47;;;;;;;14.13;51.07;98835.34;5016898;28;20038;-77
2023/04/23 00:49:28;;;;;;;5.68;2.22;;;;;;;14.13;50.98;98848.47;4999904;28;20195;-80
2023/04/23 00:51:54;;;;;;;7.20;2.75;;;;;;;14.08;51.15;98838.38;4999001;28;20033;-79
2023/04/23 00:54:20;;;;;;;7.53;2.47;;;;;;;14.08;51.17;98847.06;4999735;28;20025;-78
2023/04/23 00:56:47;;;;;;;6.75;2.47;;;;;;;14.03;51.03;98835.34;4982363;28;20045;-78
2023/04/23 00:59:13;;;;;;;4.70;2.10;;;;;;;14.05;51.04;98841.28;4999800;28;20079;-78
2023/04/23 01:01:39;;;;;;;4.80;2.45;;;;;;;14.05;51.17;98849.16;5000175;28;20373;-79
2023/04/23 01:04:05;;;;;;;3.50;2.10;;;;;;;14.02;51.06;98850.22;4999618;28;20074;-79
2023/04/23 01:06:30;;;;;;;7.20;2.00;;;;;;;14.01;51.14;98847.75;4999976;28;20041;-79
2023/04/23 01:08:56;;;;;;;10.55;2.55;;;;;;;13.97;51.24;98849.00;4983380;28;20057;-79
2023/04/23 01:11:21;;;;;;;5.03;1.90;;;;;;;13.94;51.50;98847.47;4999058;28;20037;-79
2023/04/23 01:13:47;;;;;;;7.07;2.10;;;;;;;13.95;51.36;98841.25;4999779;28;20045;-80
2023/04/23 01:16:12;;;;;;;7.40;2.40;;;;;;;13.93;51.38;98845.78;5015772;28;20076;-79
2023/04/23 01:18:39;;;;;;;12.80;2.20;;;;;;;13.92;51.35;98846.78;4999597;28;20477;-79
2023/04/23 01:21:06;;;;;;;4.88;1.75;;;;;;;13.91;51.50;98858.22;5033532;28;20443;-79
2023/04/23 01:23:31;;;;;;;11.90;2.05;;;;;;;13.85;51.02;98840.41;4999112;28;20037;-80
2023/04/23 01:25:57;;;;;;;7.70;2.00;;;;;;;13.86;51.40;98847.31;5033581;28;20108;-80
2023/04/23 01:28:23;;;;;;;3.90;1.80;;;;;;;13.84;51.54;98846.63;4999454;28;20492;-78
2023/04/23 01:30:48;;;;;;;8.98;1.95;;;;;;;13.86;51.58;98849.94;4982725;28;20041;-78
2023/04/23 01:33:14;;;;;;;6.82;1.75;;;;;;;13.81;51.45;98850.34;5015579;28;20346;-80
2023/04/23 01:35:40;;;;;;;6.05;1.80;;;;;;;13.82;51.45;98853.78;4998580;28;20132;-78
2023/04/23 01:38:06;;;;;;;7.38;2.08;;;;;;;13.81;51.62;98854.78;4982459;28;20048;-79
2023/04/23 01:40:32;;;;;;;8.27;2.72;;;;;;;13.79;51.88;98849.66;5015354;28;20033;-79
2023/04/23 01:42:57;;;;;;;3.05;1.80;;;;;;;13.79;51.58;98854.91;4982906;28;20131;-78
2023/04/23 01:45:23;;;;;;;7.50;2.90;;;;;;;13.74;51.45;98846.59;4999342;28;20061;-79
2023/04/23 01:47:49;;;;;;;8.02;1.75;;;;;;;13.77;51.66;98856.81;4982393;28;20467;-79
2023/04/23 01:50:14;;;;;;;3.78;1.70;;;;;;;13.75;51.86;98856.13;4982726;28;20156;-78
2023/04/23 01:52:40;;;;;;;5.55;1.80;;;;;;;13.72;51.68;98851.16;5032366;28;20037;-78
2023/04/23 01:55:07;;;;;;;5.70;1.60;;;;;;;13.72;51.79;98861.63;4998972;28;20027;-78
2023/04/23 01:57:33;;;;;;;5.85;1.77;;;;;;;13.69;51.88;98854.84;4981985;28;20036;-79
2023/04/23 02:00:07;;;;;;;4.30;1.40;;;;;;;13.67;51.82;98850.72;5014723;28;20439;-80
2023/04/23 02:02:37;;;;;;;4.65;1.67;;;;;;;13.65;52.14;98853.47;4983696;28;20025;-79
2023/04/23 02:05:06;;;;;;;4.68;1.67;;;;;;;13.61;52.00;98846.00;4982536;28;20060;-79
2023/04/23 02:07:32;;;;;;;5.03;1.65;;;;;;;13.60;51.99;98855.69;4999302;28;20061;-79
2023/04/23 02:09:57;;;;;;;7.25;1.60;;;;;;;13.55;51.92;98848.22;4998545;28;20057;-79
2023/04/23 02:12:23;;;;;;;2.75;1.35;;;;;;;13.55;51.93;98845.59;5014509;28;20463;-80
2023/04/23 02:14:49;;;;;;;4.68;1.60;;;;;;;13.59;52.14;98861.88;4982247;28;20033;-80
2023/04/23 02:17:15;;;;;;;6.30;1.50;;;;;;;13.52;51.87;98855.50;4983306;28;20037;-79
2023/04/23 02:19:40;;;;;;;3.55;1.60;;;;;;;13.51;52.20;98859.09;4982467;28;20466;-80
2023/04/23 02:22:06;;;;;;;6.68;1.60;;;;;;;13.54;51.93;98861.47;4999038;28;20037;-77
2023/04/23 02:24:32;;;;;;;6.50;1.83;;;;;;;13.54;52.09;98866.69;4998725;28;20025;-77
2023/04/23 02:26:58;;;;;;;4.55;1.42;;;;;;;13.49;52.16;98863.63;4998656;28;20067;-76
2023/04/23 02:29:23;;;;;;;7.68;1.70;;;;;;;13.47;52.05;98858.53;4998527;28;20029;-77
2023/04/23 02:31:49;;;;;;;4.13;1.52;;;;;;;13.48;52.29;98864.59;4998547;28;20117;-79
2023/04/23 02:34:14;;;;;;;5.28;1.52;;;;;;;13.47;52.01;98862.94;5014999;28;20021;-77
2023/04/23 02:36:40;;;;;;;2.88;1.50;;;;;;;13.44;52.28;98858.81;5015008;28;20040;-77
2023/04/23 02:39:05;;;;;;;6.22;2.05;;;;;;;13.42;52.31;98865.94;4998785;28;20508;-81
2023/04/23 02:41:31;;;;;;;5.25;1.50;;;;;;;13.37;52.29;98861.09;4997978;28;20061;-79
2023/04/23 02:43:57;;;;;;;4.45;1.52;;;;;;;13.38;52.16;98860.16;4981107;28;20037;-78
2023/04/23 02:46:22;;;;;;;4.70;1.95;;;;;;;13.37;52.22;98863.72;4997518;28;20037;-77
2023/04/23 02:48:48;;;;;;;2.50;1.25;;;;;;;13.33;52.06;98858.88;4998670;28;20036;-78
2023/04/23 02:51:13;;;;;;;3.67;1.48;;;;;;;13.31;52.27;98860.78;4997570;28;20080;-78
2023/04/23 02:53:39;;;;;;;4.75;1.40;;;;;;;13.27;52.34;98856.78;4981634;28;20389;-78
2023/04/23 02:56:06;;;;;;;8.70;1.75;;;;;;;13.27;52.19;98856.78;4997461;28;20045;-77
2023/04/23 02:58:31;;;;;;;3.35;1.48;;;;;;;13.27;52.55;98859.41;4998882;28;20077;-79
2023/04/23 03:00:57;;;;;;;5.53;1.70;;;;;;;13.23;52.40;98857.97;5015194;28;20029;-78
2023/04/23 03:03:25;;;;;;;4.35;1.40;;;;;;;13.22;52.27;98859.78;4998784;28;20108;-78
2023/04/23 03:05:50;;;;;;;4.82;1.67;;;;;;;13.25;52.64;98864.78;4986411;28;20049;-78
2023/04/23 03:08:16;;;;;;;3.33;1.38;;;;;;;13.21;52.45;98866.81;5017134;28;20416;-79
2023/04/23 03:10:41;;;;;;;6.43;1.38;;;;;;;13.17;52.48;98852.31;4985866;28;20095;-78
2023/04/23 03:13:07;;;;;;;6.60;1.30;;;;;;;13.19;52.41;98865.28;4985966;28;20099;-78
2023/04/23 03:15:33;;;;;;;3.78;1.83;;;;;;;13.15;52.32;98864.69;5018499;28;20029;-77
2023/04/23 03:18:00;;;;;;;3.75;1.35;;;;;;;13.18;52.39;98869.69;4985324;28;20040;-78
2023/04/23 03:20:26;;;;;;;5.05;1.38;;;;;;;13.18;52.48;98863.63;5018543;28;20026;-79
2023/04/23 03:22:51;;;;;;;4.43;1.40;;;;;;;13.18;52.62;98874.09;5000729;28;20033;-79
2023/04/23 03:25:18;;;;;;;6.88;1.35;;;;;;;13.14;52.58;98870.91;5001473;28;20025;-77
2023/04/23 03:27:43;;;;;;;4.38;1.50;;;;;;;13.19;52.59;98873.16;5002171;28;20033;-78
2023/04/23 03:30:09;;;;;;;5.43;1.67;;;;;;;13.24;52.43;98875.38;5002246;28;20040;-78
2023/04/23 03:32:35;;;;;;;3.88;1.73;;;;;;;13.35;52.04;98880.56;5018213;28;20037;-79
2023/04/23 03:35:00;;;;;;;5.85;1.42;;;;;;;13.52;51.57;98879.09;5001664;28;20026;-77
2023/04/23 03:37:26;;;;;;;2.38;1.48;;;;;;;13.64;51.25;98877.22;5001714;28;20099;-78
2023/04/23 03:39:51;;;;;;;4.05;1.40;;;;;;;13.65;51.31;98881.50;4985862;28;20504;-76
2023/04/23 03:42:17;;;;;;;8.63;1.63;;;;;;;13.99;50.44;98876.75;4984936;28;20080;-76
2023/04/23 03:44:42;;;;;;;5.20;1.65;;;;;;;14.41;49.54;98879.16;5017907;28;20018;-82
2023/04/23 03:47:08;;;;;;;3.50;1.55;;;;;;;14.61;49.21;98877.38;4985301;28;20518;-82
2023/04/23 03:49:33;;;;;;;3.85;1.80;;;;;;;15.00;48.27;98865.97;4985170;28;20030;-82
2023/04/23 03:51:59;;;;;;;4.50;1.40;;;;;;;15.54;47.23;98885.47;4985041;28;20036;-82
2023/04/23 03:54:25;;;;;;;5.90;1.70;;;;;;;16.07;46.21;98883.94;5000999;28;20033;-82
2023/04/23 03:56:50;;;;;;;4.35;1.40;;;;;;;16.57;45.18;98866.81;5018232;28;20489;-84
2023/04/23 03:59:16;;;;;;;8.25;1.50;;;;;;;17.15;44.13;98873.31;5000405;28;20065;-82
2023/04/23 04:01:42;;;;;;;3.50;1.30;;;;;;;17.76;42.78;98875.06;5017432;28;20033;-82
2023/04/23 04:04:07;;;;;;;4.43;1.55;;;;;;;18.49;41.43;98877.09;4999710;28;20042;-79
2023/04/23 04:06:33;;;;;;;4.03;1.50;;;;;;;19.15;40.20;98891.13;5000699;28;20045;-79
2023/04/23 04:08:59;;;;;;;7.78;1.60;;;;;;;19.82;39.02;98884.63;5016228;28;20568;-79
2023/04/23 04:11:25;;;;;;;5.82;1.92;;;;;;;20.43;37.93;98878.66;5001489;28;20033;-81
2023/04/23 04:13:50;;;;;;;5.82;1.70;;;;;;;21.07;36.82;98890.72;5001395;28;20025;-82
2023/04/23 04:16:16;;;;;;;5.20;1.40;;;;;;;21.74;35.33;98887.16;5000864;28;20107;-81
2023/04/23 04:18:41;;;;;;;3.92;1.52;;;;;;;22.39;34.33;98888.16;4984686;28;20631;-82
2023/04/23 04:21:07;;;;;;;4.57;1.70;;;;;;;23.13;33.10;98888.75;5017356;28;20037;-80
2023/04/23 04:23:33;;;;;;;6.63;1.60;;;;;;;23.81;31.97;98888.91;5016622;28;20045;-80
2023/04/23 04:25:59;;;;;;;3.30;1.40;;;;;;;24.39;31.34;98885.00;5000516;28;20041;-80
2023/04/23 04:28:25;;;;;;;6.68;1.77;;;;;;;25.14;30.33;98890.16;5016841;28;20056;-82
2023/04/23 04:30:52;;;;;;;5.03;1.50;;;;;;;25.81;29.38;98893.50;5000841;28;20095;-82
2023/04/23 04:33:19;;;;;;;7.40;1.63;;;;;;;26.51;28.39;98892.72;5017121;28;20029;-83
2023/04/23 04:35:45;;;;;;;6.25;1.85;;;;;;;27.14;27.41;98882.16;5034168;28;20027;-83
2023/04/23 04:38:11;;;;;;;4.93;1.50;;;;;;;27.77;26.68;98887.25;5000866;28;20116;-83
2023/04/23 04:40:36;;;;;;;4.70;1.60;;;;;;;28.31;25.95;98892.72;5000039;28;20103;-83
2023/04/23 04:43:04;;;;;;;7.15;1.67;;;;;;;28.78;25.02;98900.09;5000464;28;20497;-83
2023/04/23 04:45:29;;;;;;;4.95;1.58;;;;;;;28.96;24.77;98899.19;4984578;28;20029;-83
2023/04/23 04:47:55;;;;;;;4.47;1.70;;;;;;;28.15;26.13;98893.38;5016537;28;20037;-83
2023/04/23 04:50:21;;;;;;;4.38;1.63;;;;;;;28.50;25.22;98898.84;4983750;28;20063;-82
2023/04/23 04:52:46;;;;;;;5.55;1.70;;;;;;;29.50;24.07;98899.03;4999520;28;20045;-82
2023/04/23 04:55:12;;;;;;;6.43;1.98;;;;;;;30.27;23.57;98908.66;4984123;28;20110;-82
2023/04/23 04:57:37;;;;;;;7.05;1.98;;;;;;;30.79;23.07;98904.97;4983729;28;20064;-82
2023/04/23 05:00:21;;;;;;;6.03;1.80;;;;;;;30.80;23.03;98911.16;5000055;28;20036;-82
2023/04/23 05:02:51;;;;;;;8.30;2.10;;;;;;;29.97;23.90;98906.22;5016778;28;20029;-82
2023/04/23 05:05:17;;;;;;;9.68;1.80;;;;;;;29.36;24.41;98903.84;4983673;28;20133;-82
2023/04/23 05:07:43;;;;;;;8.38;1.90;;;;;;;29.17;24.64;98907.69;4983808;28;20060;-83
2023/04/23 05:10:09;;;;;;;5.97;1.90;;;;;;;28.57;25.25;98914.03;5016579;28;20063;-82
2023/04/23 05:12:36;;;;;;;7.28;2.08;;;;;;;27.60;26.36;98911.16;5016381;28;20031;-80
2023/04/23 05:15:01;;;;;;;10.00;2.33;;;;;;;27.13;27.09;98910.78;5016553;28;20026;-81
2023/04/23 05:17:27;;;;;;;5.05;1.90;;;;;;;28.83;25.06;98915.53;5015997;28;20029;-82
2023/04/23 05:19:52;;;;;;;9.88;2.33;;;;;;;29.86;24.07;98920.53;4983955;28;20025;-83
2023/04/23 05:22:21;;;;;;;3.95;2.20;;;;;;;30.69;23.01;98920.16;4984354;28;20033;-87
2023/04/23 05:24:46;;;;;;;6.13;1.98;;;;;;;31.40;22.15;98915.03;5002352;28;20051;-80
2023/04/23 05:27:12;;;;;;;5.15;2.08;;;;;;;32.05;21.34;98913.41;5031094;28;20041;-77
2023/04/23 05:29:37;;;;;;;7.90;2.28;;;;;;;32.65;20.74;98918.91;4986866;28;20046;-80
2023/04/23 05:32:03;;;;;;;6.13;2.10;;;;;;;33.23;20.53;98913.69;4983285;28;20087;-79
2023/04/23 05:34:28;;;;;;;5.38;1.85;;;;;;;33.68;20.00;98916.88;5000118;28;20116;-80
2023/04/23 05:36:54;;;;;;;9.07;2.13;;;;;;;34.09;19.45;98919.72;4999498;28;20036;-79
2023/04/23 05:39:19;;;;;;;6.25;1.88;;;;;;;34.47;18.96;98920.34;4999141;28;20045;-79
2023/04/23 05:41:45;;;;;;;6.75;2.05;;;;;;;34.73;18.66;98920.38;4999454;28;20103;-79
2023/04/23 05:44:10;;;;;;;7.38;2.05;;;;;;;35.00;18.34;98914.69;4999312;28;20033;-80
2023/04/23 05:46:37;;;;;;;9.45;2.30;;;;;;;35.26;18.00;98917.38;4983129;28;20037;-79
2023/04/23 05:49:03;;;;;;;6.97;2.33;;;;;;;35.51;18.09;98932.75;4983343;28;20065;-79
2023/04/23 05:51:28;;;;;;;9.98;2.47;;;;;;;35.60;17.85;98925.69;4981545;28;20060;-79
2023/04/23 05:53:54;;;;;;;7.63;2.13;;;;;;;35.70;17.71;98927.53;4995550;28;20037;-79
2023/04/23 05:56:19;;;;;;;7.18;2.30;;;;;;;35.84;17.59;98925.84;4978766;28;20046;-77
2023/04/23 05:58:45;;;;;;;7.28;1.98;;;;;;;35.98;17.49;98926.06;4979719;28;20408;-77
2023/04/23 06:01:11;;;;;;;4.32;1.88;;;;;;;36.09;17.48;98926.00;4979736;28;20177;-84
2023/04/23 06:03:37;;;;;;;13.27;1.60;;;;;;;36.13;20.14;98930.59;4990379;28;20029;-78
2023/04/23 06:06:02;;;;;;;4.80;1.30;;;;;;;35.90;21.29;98934.81;4986683;28;20557;-76
2023/04/23 06:08:28;;;;;;;7.03;1.25;;;;;;;35.67;22.33;98937.03;4965912;28;20033;-82
2023/04/23 06:10:54;;;;;;;4.03;1.67;;;;;;;35.51;21.70;98943.63;4981221;28;20080;-76
2023/04/23 06:13:20;;;;;;;9.17;1.90;;;;;;;35.09;21.67;98937.47;4980002;28;20116;-73
2023/04/23 06:15:46;;;;;;;6.15;1.70;;;;;;;35.02;22.13;98938.81;5012737;28;20308;-77
2023/04/23 06:18:12;;;;;;;9.68;1.60;;;;;;;34.88;23.30;98936.66;4995670;28;20468;-82
2023/04/23 06:20:37;;;;;;;9.73;1.90;;;;;;;34.68;22.89;98932.03;4999867;28;20033;-84
2023/04/23 06:23:02;;;;;;;4.85;1.35;;;;;;;34.58;22.51;98940.16;4979269;28;20472;-78
2023/04/23 06:25:28;;;;;;;13.70;2.00;;;;;;;34.33;21.32;98936.34;4996275;28;20053;-72
2023/04/23 06:27:54;;;;;;;5.55;1.70;;;;;;;33.72;19.13;98932.34;4963377;28;20041;-77
2023/04/23 06:30:19;;;;;;;5.95;2.13;;;;;;;33.33;18.67;98932.66;4979700;28;20025;-73
2023/04/23 06:32:45;;;;;;;10.65;1.88;;;;;;;32.95;20.79;98936.44;5013011;28;20030;-75
2023/04/23 06:35:10;;;;;;;9.25;2.13;;;;;;;32.97;20.48;98937.81;4979356;28;20026;-75
2023/04/23 06:37:36;;;;;;;10.05;1.88;;;;;;;32.72;21.22;98927.63;4995207;28;20112;-71
2023/04/23 06:40:01;;;;;;;10.10;1.90;;;;;;;32.51;19.46;98937.41;4981313;28;20072;-72
2023/04/23 06:42:27;;;;;;;12.32;2.30;;;;;;;32.20;19.39;98931.72;5022668;28;20045;-76
2023/04/23 06:44:53;;;;;;;6.78;1.88;;;;;;;31.60;19.75;98930.72;4983703;28;20570;-81
2023/04/23 06:47:18;;;;;;;15.07;1.98;;;;;;;32.14;19.63;98930.03;4998457;28;20037;-84
2023/04/23 06:49:45;;;;;;;12.20;2.10;;;;;;;32.70;19.90;98937.84;5001840;28;20030;-83
2023/04/23 06:52:11;;;;;;;18.20;2.10;;;;;;;32.44;19.88;98942.22;4999129;28;20073;-83
2023/04/23 06:54:36;;;;;;;7.28;2.35;;;;;;;32.23;19.01;98931.19;5015485;28;20037;-86
2023/04/23 06:57:02;;;;;;;9.57;2.35;;;;;;;32.28;18.52;98938.53;4984172;28;20033;-85
2023/04/23 07:01:57;;;;;;;8.25;2.47;;;;;;;32.83;17.43;98939.34;5081237;23;20049;-88
2023/04/23 07:04:23;;;;;;;7.13;2.85;;;;;;;32.82;17.66;98930.41;5027961;28;20049;-89
2023/04/23 07:06:49;;;;;;;8.80;3.00;;;;;;;32.46;17.28;98948.97;5133214;23;20132;-92
2023/04/23 07:09:14;;;;;;;11.10;2.70;;;;;;;32.95;17.12;98950.75;5009325;28;20049;-89
2023/04/23 07:11:40;;;;;;;8.75;2.55;;;;;;;33.23;16.59;98943.44;5008991;28;20037;-89
2023/04/23 07:14:06;;;;;;;13.40;2.40;;;;;;;33.51;16.87;98952.22;4998032;28;20030;-85
2023/04/23 07:16:32;;;;;;;10.43;2.00;;;;;;;33.67;15.56;98953.94;4979724;28;20030;-84
2023/04/23 07:19:00;;;;;;;6.22;1.98;;;;;;;33.76;15.60;98948.84;4996114;28;20038;-85
2023/04/23 07:21:27;;;;;;;7.75;2.17;;;;;;;33.93;15.15;98948.66;4980848;28;20026;-86
2023/04/23 07:23:55;;;;;;;5.60;2.10;;;;;;;34.02;15.05;98943.56;4995832;28;20033;-85
2023/04/23 07:26:21;;;;;;;7.57;2.30;;;;;;;34.10;14.67;98945.75;4995793;28;20125;-84
2023/04/23 07:28:47;;;;;;;10.77;2.40;;;;;;;34.20;14.50;98947.66;4988411;28;20057;-76
2023/04/23 07:31:13;;;;;;;6.07;2.22;;;;;;;34.34;14.37;98950.69;4981223;28;20048;-83
2023/04/23 07:33:39;;;;;;;7.72;1.85;;;;;;;34.37;16.62;98948.25;4991983;28;20037;-78
2023/04/23 07:36:04;;;;;;;7.10;1.95;;;;;;;34.20;20.92;98959.28;4994317;28;20037;-80
2023/04/23 07:38:30;;;;;;;11.63;2.05;;;;;;;33.91;20.38;98944.59;4959376;28;20035;-82
2023/04/23 07:40:55;;;;;;;9.60;2.20;;;;;;;33.85;20.18;98947.28;4959790;28;20517;-81
2023/04/23 07:43:21;;;;;;;6.47;1.90;;;;;;;33.99;19.57;98947.59;4979535;28;20541;-85
2023/04/23 07:45:47;;;;;;;7.68;2.22;;;;;;;34.05;19.09;98951.94;4976491;28;20033;-88
2023/04/23 07:48:12;;;;;;;6.65;1.98;;;;;;;34.11;18.71;98946.53;4988057;28;20382;-87
2023/04/23 07:50:38;;;;;;;8.20;2.40;;;;;;;34.23;19.15;98947.16;5012775;28;20488;-79
2023/04/23 07:53:03;;;;;;;6.30;1.95;;;;;;;34.27;17.21;98937.41;4994920;28;20116;-78
2023/04/23 07:55:29;;;;;;;9.02;2.30;;;;;;;34.36;16.87;98945.81;4971831;28;20042;-74
2023/04/23 07:57:54;;;;;;;8.32;1.90;;;;;;;34.39;14.79;98951.50;4984942;28;20042;-76
2023/04/23 08:00:20;;;;;;;5.57;1.90;;;;;;;34.34;14.87;98948.78;4974791;28;20476;-76
2023/04/23 08:02:46;;;;;;;11.90;2.08;;;;;;;34.27;14.26;98947.41;5001906;28;20046;-78
2023/04/23 08:05:11;;;;;;;8.25;2.20;;;;;;;34.26;15.31;98941.19;4977288;28;20038;-79
2023/04/23 08:07:37;;;;;;;11.73;1.92;;;;;;;34.26;13.99;98941.19;4932107;28;20098;-81
2023/04/23 08:10:04;;;;;;;8.80;2.00;;;;;;;34.15;14.27;98942.22;4943292;28;20089;-85
2023/04/23 08:12:30;;;;;;;7.03;2.53;;;;;;;33.98;15.40;98935.13;4943559;28;20499;-77
2023/04/23 08:14:56;;;;;;;8.90;2.03;;;;;;;33.80;15.45;98943.75;4942276;28;20158;-78
2023/04/23 08:17:22;;;;;;;7.53;2.10;;;;;;;33.86;16.96;98945.41;4942175;28;20049;-81
2023/04/23 08:19:47;;;;;;;5.63;2.10;;;;;;;33.69;14.64;98940.97;4973680;28;20602;-76
2023/04/23 08:22:14;;;;;;;7.03;1.70;;;;;;;33.43;14.93;98937.34;4961773;28;20038;-79
2023/04/23 08:24:40;;;;;;;6.72;2.30;;;;;;;33.45;15.52;98927.06;4964953;28;20485;-79
2023/04/23 08:27:06;;;;;;;7.85;2.40;;;;;;;33.17;14.43;98939.03;4934771;28;20522;-79
2023/04/23 08:29:32;;;;;;;10.70;2.10;;;;;;;33.14;15.22;98932.25;4979747;28;20033;-78
2023/04/23 08:31:57;;;;;;;9.27;2.38;;;;;;;33.17;15.15;98939.03;4981719;28;20491;-83
2023/04/23 08:34:23;;;;;;;7.20;2.60;;;;;;;33.13;17.83;98927.09;4998436;28;20398;-86
2023/04/23 08:36:48;;;;;;;8.20;2.30;;;;;;;32.96;18.57;98938.88;5008004;28;20034;-78
2023/04/23 08:39:14;;;;;;;6.55;2.15;;;;;;;32.86;16.87;98924.47;4962112;28;20041;-83
2023/04/23 08:41:42;;;;;;;14.60;2.50;;;;;;;32.75;17.60;98920.88;4977075;28;20045;-84
2023/04/23 08:44:14;;;;;;;10.10;2.35;;;;;;;32.61;19.62;98920.47;4962819;28;20069;-80
2023/04/23 08:46:42;;;;;;;11.55;2.60;;;;;;;32.50;19.74;98919.56;4950057;28;20034;-84
2023/04/23 08:49:08;;;;;;;;;;;;;;;32.50;19.81;98916.03;4964196;28;20041;-80
2023/04/23 08:51:36;;;;;;;9.57;2.25;;;;;;;32.39;19.18;98917.84;4975981;28;19913;-84
2023/04/23 08:54:02;;;;;;;7.28;2.22;;;;;;;32.21;18.50;98913.63;4976779;28;20033;-80
2023/04/23 08:56:27;;;;;;;9.25;2.28;;;;;;;31.95;20.17;98910.63;4944187;28;20038;-72
2023/04/23 08:58:53;;;;;;;6.15;2.10;;;;;;;30.60;16.61;98917.88;4975546;28;20399;-71
2023/04/23 09:01:18;;;;;;;5.55;1.73;;;;;;;30.23;16.36;98914.75;4943526;28;20140;-72
2023/04/23 09:03:44;;;;;;;5.80;1.90;;;;;;;29.59;17.41;98912.94;4944079;28;20058;-71
2023/04/23 09:06:10;;;;;;;8.70;2.40;;;;;;;29.33;18.17;98914.25;4959821;28;20034;-71
2023/04/23 09:08:35;;;;;;;6.05;1.88;;;;;;;28.91;18.88;98906.28;4940895;28;20502;-74
2023/04/23 09:11:01;;;;;;;4.15;1.92;;;;;;;29.18;17.88;98906.66;4940415;28;20043;-70
2023/04/23 09:13:27;;;;;;;9.13;2.40;;;;;;;28.38;17.33;98907.91;4940890;28;20034;-71
2023/04/23 09:15:53;;;;;;;13.65;6.25;;;;;;;28.23;19.48;98909.16;4941754;28;20465;-69
2023/04/23 09:18:18;;;;;;;14.25;2.85;;;;;;;28.11;18.36;98913.66;4955838;28;20031;-72
2023/04/23 09:20:44;;;;;;;10.38;2.35;;;;;;;27.51;18.48;98917.84;4939483;28;20035;-69
2023/04/23 09:23:13;;;;;;;8.15;2.75;;;;;;;27.00;20.77;98901.00;4940469;28;20078;-70
2023/04/23 09:25:38;;;;;;;14.85;2.15;;;;;;;27.02;19.79;98906.97;4940525;28;20034;-70
2023/04/23 09:28:06;;;;;;;9.07;2.50;;;;;;;27.10;19.36;98903.19;4941287;28;20416;-68
2023/04/23 09:30:36;;;;;;;6.70;2.03;;;;;;;26.55;20.17;98917.19;4921789;28;20033;-67
2023/04/23 09:33:02;;;;;;;5.72;1.80;;;;;;;26.54;20.39;98907.53;4925621;28;20080;-69
2023/04/23 09:35:27;;;;;;;7.43;2.03;;;;;;;26.83;21.19;98902.59;4937917;28;20505;-75
2023/04/23 09:37:53;;;;;;;5.50;2.08;;;;;;;27.12;21.19;98893.09;4918946;28;20529;-75
2023/04/23 09:40:21;;;;;;;6.60;2.10;;;;;;;27.36;20.37;98894.09;4941399;28;20117;-75
2023/04/23 09:42:47;;;;;;;;;;;;;;;27.35;19.98;98887.09;4957229;28;20470;-79
2023/04/23 09:45:12;;;;;;;4.10;1.88;;;;;;;27.12;19.53;98885.06;4940747;28;19969;-80
2023/04/23 09:47:39;;;;;;;8.95;2.20;;;;;;;26.13;19.99;98890.09;4957374;28;20034;-75
2023/04/23 09:50:05;;;;;;;8.95;2.20;;;;;;;25.38;20.27;98886.06;4940266;28;20050;-72
2023/04/23 09:52:31;;;;;;;14.40;2.42;;;;;;;25.23;21.45;98883.56;4956194;28;20031;-74
2023/04/23 09:54:58;;;;;;;11.48;2.20;;;;;;;25.07;20.65;98881.34;4957874;28;20062;-80
2023/04/23 09:57:24;;;;;;;7.22;1.90;;;;;;;25.32;20.55;98878.03;4955954;28;20031;-76
2023/04/23 09:59:50;;;;;;;9.15;2.40;;;;;;;25.43;20.07;98870.22;4956203;28;20046;-73
2023/04/23 10:02:18;;;;;;;9.20;2.03;;;;;;;25.53;20.42;98871.63;4931702;28;20482;-77
2023/04/23 10:04:43;;;;;;;;;;;;;;;24.85;20.55;98875.41;4932579;28;20023;-76
2023/04/23 10:07:12;;;;;;;3.95;1.83;;;;;;;24.82;20.85;98871.31;4976643;28;19933;-78
2023/04/23 10:09:39;;;;;;;8.45;2.50;;;;;;;24.52;21.11;98866.34;4941364;28;20035;-78
2023/04/23 10:12:05;;;;;;;9.82;2.47;;;;;;;24.69;20.90;98871.31;4940037;28;20061;-78
2023/04/23 10:14:31;;;;;;;6.82;2.22;;;;;;;24.15;22.36;98870.41;4957199;28;20069;-79
2023/04/23 10:17:01;;;;;;;8.77;2.10;;;;;;;24.27;22.57;98865.28;4924006;28;20066;-82
2023/04/23 10:19:27;;;;;;;7.05;1.90;;;;;;;24.46;21.46;98869.00;4957125;28;20034;-77
2023/04/23 10:22:04;;;;;;;9.65;2.28;;;;;;;24.59;22.02;98863.72;4924715;28;20039;-78
2023/04/23 10:24:34;;;;;;;17.65;2.70;;;;;;;23.74;23.14;98861.44;4925556;28;20058;-78
2023/04/23 10:27:03;;;;;;;7.43;2.05;;;;;;;23.64;23.26;98864.47;4925235;28;20122;-79
2023/04/23 10:29:32;;;;;;;9.85;1.92;;;;;;;23.70;23.51;98862.03;4941014;28;20465;-81
2023/04/23 10:32:02;;;;;;;7.28;2.10;;;;;;;23.65;23.61;98860.75;4941255;28;20038;-76
2023/04/23 10:34:30;;;;;;;12.73;2.60;;;;;;;23.87;24.35;98846.53;4940238;28;20022;-77
2023/04/23 10:36:58;;;;;;;7.22;2.33;;;;;;;24.23;23.38;98851.53;4956047;28;20467;-79
2023/04/23 10:39:25;;;;;;;5.78;2.35;;;;;;;24.54;23.96;98840.28;4928980;28;20034;-78
2023/04/23 10:41:52;;;;;;;6.53;2.30;;;;;;;24.82;25.04;98849.13;4939754;28;20038;-74
2023/04/23 10:44:20;;;;;;;13.27;2.40;;;;;;;24.74;25.84;98842.97;4954709;28;20035;-73
2023/04/23 10:46:55;;;;;;;6.38;2.20;;;;;;;24.76;25.03;98841.94;4955767;28;20479;-81
2023/04/23 10:49:21;;;;;;;9.55;2.22;;;;;;;24.73;24.45;98840.50;4941174;28;20158;-83
2023/04/23 10:51:47;;;;;;;8.98;2.13;;;;;;;24.79;24.89;98839.69;4923548;28;20043;-82
2023/04/23 10:54:14;;;;;;;8.32;2.40;;;;;;;24.69;24.81;98824.09;4923247;28;20039;-81
2023/04/23 10:56:41;;;;;;;9.90;2.08;;;;;;;24.88;24.68;98832.28;4954463;28;20115;-79
2023/04/23 10:59:08;;;;;;;7.93;2.45;;;;;;;24.98;24.35;98824.66;4970049;28;20090;-78
2023/04/23 11:01:33;;;;;;;7.38;1.98;;;;;;;25.07;24.10;98823.41;4953618;28;20043;-82
2023/04/23 11:04:18;;;;;;;5.97;2.17;;;;;;;25.17;23.83;98822.97;4937096;28;20074;-79
2023/04/23 11:06:46;;;;;;;7.15;2.30;;;;;;;25.25;23.62;98821.94;4958051;28;20054;-79
2023/04/23 11:09:40;;;;;;;5.47;2.40;;;;;;;25.23;23.46;98822.13;4990203;28;20410;-80
2023/04/23 11:12:13;;;;;;;7.03;2.45;;;;;;;25.25;23.23;98820.09;4973395;28;20038;-80
2023/04/23 11:14:48;;;;;;;6.35;2.40;;;;;;;25.28;23.33;98813.53;4973284;28;20037;-79
2023/04/23 11:17:19;;;;;;;9.52;2.38;;;;;;;25.29;22.82;98817.84;4957266;28;20136;-80
2023/04/23 11:20:20;;;;;;;6.60;2.22;;;;;;;25.25;23.15;98811.25;4956853;28;20042;-81
2023/04/23 11:22:50;;;;;;;5.47;2.10;;;;;;;25.26;22.84;98820.91;4917693;29;20075;-80
2023/04/23 11:25:25;;;;;;;7.18;2.10;;;;;;;25.19;23.27;98812.06;4904629;29;20059;-80
2023/04/23 11:27:52;;;;;;;4.93;2.28;;;;;;;25.08;23.11;98822.41;4920944;29;20043;-78
2023/04/23 11:30:24;;;;;;;4.85;2.00;;;;;;;24.95;22.82;98811.72;4906229;29;20062;-82
2023/04/23 11:32:51;;;;;;;9.60;2.17;;;;;;;24.84;22.41;98807.88;4904601;29;20127;-77